Time;durP1;ratioP1;P1;durP2;ratioP2;P2;SDS_P1;SDS_P2;PMS_P1;PMS_P2;Temp;Humidity;BMP_temperature;BMP_pressure;BME280_temperature;BME280_humidity;BME280_pressure;Samples;Min_cycle;Max_cycle;Signal;HPM_P1;HPM_P2
2023/10/18 00:01:21;;;;;;;8.30;4.65;;;6.60;99.90;;;;;;6193911;23;20135;-63
2023/10/18 00:03:46;;;;;;;5.93;3.92;;;6.60;99.90;;;;;;6194463;23;20009;-63
2023/10/18 00:06:15;;;;;;;7.75;4.05;;;6.60;99.90;;;;;;6194611;23;20003;-63
2023/10/18 00:08:41;;;;;;;7.22;3.55;;;6.40;99.90;;;;;;6219876;23;20000;-63
2023/10/18 00:11:07;;;;;;;6.45;3.95;;;6.10;99.90;;;;;;6220230;23;20005;-63
2023/10/18 00:13:33;;;;;;;6.82;4.00;;;5.90;99.90;;;;;;6194055;23;20011;-63
2023/10/18 00:16:06;;;;;;;5.78;3.22;;;5.80;99.90;;;;;;6194704;23;20008;-63
2023/10/18 00:18:36;;;;;;;9.25;3.70;;;5.60;99.90;;;;;;6193808;23;20009;-63
2023/10/18 00:21:07;;;;;;;6.45;3.85;;;5.50;99.90;;;;;;6219815;23;20103;-63
2023/10/18 00:23:33;;;;;;;6.80;3.83;;;5.50;99.90;;;;;;6220712;23;19997;-63
2023/10/18 00:26:04;;;;;;;8.27;4.00;;;5.40;99.90;;;;;;6194039;23;20084;-63
2023/10/18 00:28:31;;;;;;;7.28;3.45;;;5.60;99.90;;;;;;6220340;23;20004;-63
2023/10/18 00:30:57;;;;;;;7.90;3.53;;;5.50;99.90;;;;;;6220193;23;20009;-63
2023/10/18 00:33:22;;;;;;;7.18;4.40;;;5.50;99.90;;;;;;6220016;23;20015;-63
2023/10/18 00:35:48;;;;;;;9.68;4.57;;;5.60;99.90;;;;;;6193880;23;20139;-63
2023/10/18 00:38:18;;;;;;;12.45;5.18;;;5.80;99.90;;;;;;6193402;23;20004;-63
2023/10/18 00:40:45;;;;;;;11.68;4.38;;;6.00;99.90;;;;;;6195455;23;20001;-63
2023/10/18 00:43:27;;;;;;;9.00;4.18;;;6.10;99.90;;;;;;6221991;23;20031;-63
2023/10/18 00:45:54;;;;;;;12.23;5.05;;;6.10;99.90;;;;;;6195937;23;20004;-63
2023/10/18 00:48:23;;;;;;;9.55;5.03;;;6.10;99.90;;;;;;6195972;23;20016;-63
2023/10/18 00:50:55;;;;;;;9.68;4.97;;;6.20;99.90;;;;;;6221735;23;20004;-62
2023/10/18 00:53:24;;;;;;;9.93;4.50;;;6.20;99.90;;;;;;6222291;23;20000;-63
2023/10/18 00:56:00;;;;;;;9.45;4.63;;;6.20;99.90;;;;;;6195979;23;20004;-63
2023/10/18 00:58:27;;;;;;;9.73;4.40;;;6.20;99.90;;;;;;6221625;23;20001;-63
2023/10/18 01:00:54;;;;;;;8.18;4.47;;;6.20;99.90;;;;;;6221745;23;20135;-63
2023/10/18 01:03:29;;;;;;;9.65;4.72;;;6.20;99.90;;;;;;6195335;23;20004;-63
2023/10/18 01:06:08;;;;;;;8.35;4.10;;;6.20;99.90;;;;;;6195399;23;20005;-63
2023/10/18 01:08:37;;;;;;;10.40;5.20;;;6.30;99.90;;;;;;6221857;23;20067;-63
2023/10/18 01:11:06;;;;;;;6.82;4.10;;;6.30;99.90;;;;;;6195624;23;20004;-63
2023/10/18 01:13:42;;;;;;;9.57;4.50;;;6.30;99.90;;;;;;6221884;23;20012;-63
2023/10/18 01:16:22;;;;;;;5.82;3.50;;;6.00;99.90;;;;;;6196220;23;20004;-63
2023/10/18 01:18:51;;;;;;;7.03;3.65;;;5.80;99.90;;;;;;6195819;23;20005;-63
2023/10/18 01:21:21;;;;;;;4.65;3.40;;;5.60;99.90;;;;;;6195223;23;20092;-63
2023/10/18 01:23:52;;;;;;;6.28;4.30;;;5.40;99.90;;;;;;6195645;23;20004;-63
2023/10/18 01:26:23;;;;;;;6.37;4.03;;;5.30;99.90;;;;;;6196346;23;19997;-63
2023/10/18 01:28:50;;;;;;;8.60;4.75;;;5.40;99.90;;;;;;6222367;23;20048;-63
2023/10/18 01:31:16;;;;;;;8.45;4.50;;;5.50;99.90;;;;;;6195187;23;20005;-63
2023/10/18 01:33:43;;;;;;;6.60;4.10;;;5.60;99.90;;;;;;6195638;23;20019;-62
2023/10/18 01:36:12;;;;;;;9.85;4.53;;;5.90;99.90;;;;;;6221384;23;20096;-63
2023/10/18 01:38:42;;;;;;;11.57;4.88;;;6.00;99.90;;;;;;6194962;23;20009;-63
2023/10/18 01:41:16;;;;;;;9.18;4.50;;;6.10;99.90;;;;;;6195824;23;20007;-63
2023/10/18 01:43:43;;;;;;;8.98;4.35;;;5.90;99.90;;;;;;6196241;23;20012;-63
2023/10/18 01:46:10;;;;;;;7.25;3.83;;;5.80;99.90;;;;;;6195114;23;20001;-63
2023/10/18 01:48:37;;;;;;;7.32;4.28;;;5.70;99.90;;;;;;6195868;23;20008;-63
2023/10/18 01:51:06;;;;;;;6.50;3.80;;;5.70;99.90;;;;;;6195100;23;20005;-63
2023/10/18 01:53:38;;;;;;;11.00;4.35;;;5.60;99.90;;;;;;6195288;23;20015;-63
2023/10/18 01:56:04;;;;;;;9.65;4.55;;;5.40;99.90;;;;;;6196186;23;20015;-62
2023/10/18 01:58:30;;;;;;;7.65;3.90;;;5.20;99.90;;;;;;6195453;23;20024;-63
2023/10/18 02:00:56;;;;;;;8.77;4.50;;;5.10;99.90;;;;;;6195485;23;20005;-63
2023/10/18 02:03:23;;;;;;;8.38;4.75;;;5.00;99.90;;;;;;6194841;23;20008;-62
2023/10/18 02:05:49;;;;;;;9.75;4.50;;;5.00;99.90;;;;;;6195815;23;20001;-63
2023/10/18 02:08:15;;;;;;;11.80;4.43;;;5.00;99.90;;;;;;6195805;23;20004;-63
2023/10/18 02:10:45;;;;;;;10.75;4.57;;;5.10;99.90;;;;;;6195244;23;20004;-63
2023/10/18 02:13:13;;;;;;;9.80;4.75;;;5.10;99.90;;;;;;6195964;23;20004;-63
2023/10/18 02:15:42;;;;;;;8.50;4.55;;;5.20;99.90;;;;;;6194918;23;20009;-63
2023/10/18 02:18:08;;;;;;;7.03;4.30;;;5.10;99.90;;;;;;6194976;23;20087;-63
2023/10/18 02:20:36;;;;;;;7.35;4.10;;;5.20;99.90;;;;;;6195408;23;20001;-63
2023/10/18 02:23:02;;;;;;;10.07;4.07;;;5.00;99.90;;;;;;6195655;23;20068;-63
2023/10/18 02:25:46;;;;;;;7.70;4.18;;;4.90;99.90;;;;;;6195186;23;20039;-63
2023/10/18 02:28:23;;;;;;;13.55;4.53;;;4.80;99.90;;;;;;6195101;23;20016;-63
2023/10/18 02:31:13;;;;;;;7.25;3.97;;;4.80;99.90;;;;;;6195729;23;20005;-63
2023/10/18 02:33:42;;;;;;;9.15;4.55;;;5.00;99.90;;;;;;6195756;23;20009;-63
2023/10/18 02:36:12;;;;;;;10.18;3.67;;;4.90;99.90;;;;;;6194971;23;20067;-63
2023/10/18 02:38:41;;;;;;;6.50;3.45;;;5.00;99.90;;;;;;6194003;22;20036;-64
2023/10/18 02:43:57;;;;;;;7.72;3.85;;;5.10;99.90;;;;;;6220999;23;20023;-63
2023/10/18 02:46:24;;;;;;;8.15;4.57;;;5.10;99.90;;;;;;6194691;23;20051;-63
2023/10/18 02:48:53;;;;;;;11.95;4.45;;;5.20;99.90;;;;;;6221132;23;20039;-63
2023/10/18 02:51:22;;;;;;;9.07;4.00;;;5.10;99.90;;;;;;6194895;23;20063;-64
2023/10/18 02:53:49;;;;;;;6.60;3.90;;;5.10;99.90;;;;;;6194485;23;20011;-64
2023/10/18 02:56:20;;;;;;;10.98;4.63;;;5.10;99.90;;;;;;6221048;23;20000;-64
2023/10/18 02:58:50;;;;;;;7.38;3.92;;;5.10;99.90;;;;;;6220659;23;20008;-64
2023/10/18 03:01:19;;;;;;;7.70;4.07;;;5.10;99.90;;;;;;6194409;23;20020;-64
2023/10/18 03:03:54;;;;;;;11.18;4.47;;;5.20;99.90;;;;;;6220461;23;20000;-64
2023/10/18 03:06:24;;;;;;;8.85;3.90;;;5.20;99.90;;;;;;6194527;23;20023;-64
2023/10/18 03:08:50;;;;;;;9.57;4.78;;;5.10;99.90;;;;;;6221057;23;20027;-64
2023/10/18 03:11:17;;;;;;;5.72;3.40;;;5.00;99.90;;;;;;6194185;23;20004;-63
2023/10/18 03:13:42;;;;;;;6.43;3.78;;;5.10;99.90;;;;;;6194262;23;20012;-63
2023/10/18 03:18:42;;;;;;;9.50;3.92;;;5.00;99.90;;;;;;6227770;23;20005;-64
2023/10/18 03:21:08;;;;;;;7.25;4.07;;;4.90;99.90;;;;;;6220430;23;20000;-63
2023/10/18 03:23:44;;;;;;;9.13;4.65;;;4.90;99.90;;;;;;6220496;23;20000;-64
2023/10/18 03:26:11;;;;;;;15.50;5.20;;;4.90;99.90;;;;;;6194626;23;20008;-63
2023/10/18 03:28:43;;;;;;;11.98;5.20;;;4.90;99.90;;;;;;6195094;23;20005;-63
2023/10/18 03:31:27;;;;;;;;;;;5.00;99.90;;;;;;6221419;23;20008;-64
2023/10/18 03:34:01;;;;;;;18.08;5.60;;;5.20;99.90;;;;;;6220717;23;19900;-63
2023/10/18 03:36:34;;;;;;;11.13;5.38;;;5.20;99.90;;;;;;6194542;23;20004;-63
2023/10/18 03:39:00;;;;;;;9.48;5.00;;;5.20;99.90;;;;;;6220378;23;20047;-64
2023/10/18 03:41:33;;;;;;;12.35;5.15;;;5.00;99.90;;;;;;6220345;23;20008;-63
2023/10/18 03:44:08;;;;;;;8.80;4.78;;;4.90;99.90;;;;;;6220590;23;20070;-63
2023/10/18 03:47:12;;;;;;;12.57;5.32;;;4.80;99.90;;;;;;6220463;23;19997;-64
2023/10/18 03:51:56;;;;;;;8.07;4.38;;;5.00;99.90;;;;;;6220262;23;20012;-63
2023/10/18 03:54:28;;;;;;;8.90;4.57;;;4.90;99.90;;;;;;6193858;23;20015;-64
2023/10/18 03:56:54;;;;;;;9.60;4.93;;;4.90;99.90;;;;;;6194061;23;20004;-64
2023/10/18 03:59:24;;;;;;;8.52;4.22;;;5.00;99.90;;;;;;6193629;23;20005;-63
2023/10/18 04:04:38;;;;;;;7.93;4.30;;;5.10;99.90;;;;;;6220423;23;20012;-63
2023/10/18 04:07:16;;;;;;;8.00;4.78;;;5.10;99.90;;;;;;6220325;23;20115;-63
2023/10/18 04:10:31;;;;;;;8.60;4.15;;;5.00;99.90;;;;;;6219826;23;20004;-64
2023/10/18 04:12:29;;;;;;;7.47;4.25;;;5.00;99.90;;;;;;6194208;23;20005;-64
2023/10/18 04:14:56;;;;;;;10.00;4.43;;;5.10;99.90;;;;;;6219640;23;20123;-64
2023/10/18 04:17:36;;;;;;;6.65;4.15;;;5.10;99.90;;;;;;6220275;23;20071;-64
2023/10/18 04:20:22;;;;;;;7.18;4.45;;;5.00;99.90;;;;;;6193841;23;20020;-63
2023/10/18 04:22:51;;;;;;;7.40;4.35;;;5.00;99.90;;;;;;6220017;23;19996;-63
2023/10/18 04:25:25;;;;;;;13.35;4.72;;;4.90;99.90;;;;;;6219997;23;20003;-63
2023/10/18 04:27:52;;;;;;;11.43;5.28;;;5.00;99.90;;;;;;6220124;23;20001;-63
2023/10/18 04:30:22;;;;;;;10.50;4.88;;;5.10;99.90;;;;;;6219848;23;20060;-64
2023/10/18 04:32:53;;;;;;;9.10;4.38;;;5.10;99.90;;;;;;6220296;23;20008;-64
2023/10/18 04:35:25;;;;;;;9.70;4.47;;;5.10;99.90;;;;;;6219990;23;19996;-63
2023/10/18 04:37:53;;;;;;;;;;;5.10;99.90;;;;;;6220431;23;20009;-63
2023/10/18 04:40:22;;;;;;;8.90;4.18;;;5.10;99.90;;;;;;6193378;23;19986;-63
2023/10/18 04:42:50;;;;;;;6.78;4.63;;;5.30;99.90;;;;;;6220180;23;19997;-63
2023/10/18 04:45:18;;;;;;;7.20;5.05;;;5.10;99.90;;;;;;6193656;23;20008;-63
2023/10/18 04:47:49;;;;;;;6.47;3.65;;;5.10;99.90;;;;;;6193821;23;20005;-64
2023/10/18 04:50:29;;;;;;;8.30;4.30;;;5.10;99.90;;;;;;6219791;23;20057;-64
2023/10/18 04:52:58;;;;;;;9.95;4.38;;;5.00;99.90;;;;;;6220235;23;20035;-63
2023/10/18 04:55:25;;;;;;;8.68;4.85;;;4.90;99.90;;;;;;6219944;23;20001;-63
2023/10/18 04:57:53;;;;;;;8.38;3.88;;;5.00;99.90;;;;;;6220065;23;20087;-64
2023/10/18 05:00:25;;;;;;;5.45;3.63;;;5.00;99.90;;;;;;6219691;23;20004;-64
2023/10/18 05:02:52;;;;;;;9.68;4.68;;;5.10;99.90;;;;;;6220130;23;20004;-63
2023/10/18 05:05:18;;;;;;;8.23;4.93;;;5.10;99.90;;;;;;6220522;23;20028;-63
2023/10/18 05:07:47;;;;;;;7.78;4.22;;;5.10;99.90;;;;;;6194518;23;20059;-64
2023/10/18 05:10:14;;;;;;;9.65;4.60;;;5.20;99.90;;;;;;6219690;23;20003;-64
2023/10/18 05:12:48;;;;;;;6.68;3.95;;;5.20;99.90;;;;;;6193483;23;20008;-64
2023/10/18 05:15:18;;;;;;;9.68;4.32;;;5.10;99.90;;;;;;6193761;23;20005;-63
2023/10/18 05:17:44;;;;;;;8.02;3.88;;;5.00;99.90;;;;;;6219949;23;20001;-64
2023/10/18 05:22:49;;;;;;;9.82;4.65;;;4.90;99.90;;;;;;6230199;23;20001;-63
2023/10/18 05:28:00;;;;;;;9.52;4.72;;;4.70;99.90;;;;;;6220427;23;20005;-64
2023/10/18 05:36:10;;;;;;;8.18;4.15;;;4.80;99.90;;;;;;6221835;23;20016;-63
2023/10/18 05:43:53;;;;;;;8.65;4.25;;;4.90;99.90;;;;;;6231712;23;20008;-63
2023/10/18 05:46:20;;;;;;;6.90;3.63;;;4.90;99.90;;;;;;6195382;23;20024;-64
2023/10/18 05:48:46;;;;;;;9.70;4.70;;;4.90;99.90;;;;;;6221558;23;20001;-64
2023/10/18 05:51:26;;;;;;;10.55;4.65;;;4.80;99.90;;;;;;6195980;23;20018;-63
2023/10/18 05:53:59;;;;;;;7.00;4.07;;;4.80;99.90;;;;;;6196228;23;20067;-64
2023/10/18 05:56:32;;;;;;;6.78;4.10;;;4.80;99.90;;;;;;6194930;23;20005;-64
2023/10/18 06:01:47;;;;;;;7.85;4.40;;;4.70;99.90;;;;;;6231717;23;20011;-64
2023/10/18 06:04:14;;;;;;;9.23;4.85;;;4.70;99.90;;;;;;6221539;23;20001;-63
2023/10/18 06:06:40;;;;;;;10.82;4.50;;;4.50;99.90;;;;;;6221218;23;20001;-64
2023/10/18 06:09:26;;;;;;;12.38;4.25;;;4.60;99.90;;;;;;6220980;23;20000;-64
2023/10/18 06:11:52;;;;;;;11.43;4.38;;;4.60;99.90;;;;;;6195029;23;20036;-63
2023/10/18 06:14:17;;;;;;;7.65;4.50;;;4.70;99.90;;;;;;6220988;23;20001;-63
2023/10/18 06:16:43;;;;;;;8.13;4.50;;;4.70;99.90;;;;;;6221010;23;20008;-64
2023/10/18 06:19:13;;;;;;;11.23;4.47;;;4.80;99.90;;;;;;6221249;23;20072;-64
2023/10/18 06:21:49;;;;;;;8.93;4.65;;;4.80;99.90;;;;;;6221971;23;20047;-64
2023/10/18 06:24:16;;;;;;;8.13;4.22;;;4.80;99.90;;;;;;6195214;23;19996;-64
2023/10/18 06:26:44;;;;;;;7.50;4.38;;;4.70;99.90;;;;;;6220951;23;20001;-64
2023/10/18 06:29:11;;;;;;;8.57;4.55;;;4.70;99.90;;;;;;6220796;23;20011;-64
2023/10/18 06:31:43;;;;;;;9.95;5.20;;;4.80;99.90;;;;;;6220977;23;20004;-64
2023/10/18 06:34:29;;;;;;;7.72;4.47;;;4.80;99.90;;;;;;6220857;23;20008;-63
2023/10/18 06:36:56;;;;;;;8.30;4.68;;;4.80;99.90;;;;;;6221043;23;20001;-64
2023/10/18 06:39:28;;;;;;;9.93;4.15;;;4.90;99.90;;;;;;6220615;23;20019;-64
2023/10/18 06:41:55;;;;;;;7.13;4.40;;;4.90;99.90;;;;;;6221584;23;19997;-64
2023/10/18 06:44:27;;;;;;;7.90;4.15;;;4.90;99.90;;;;;;6220766;23;20000;-64
2023/10/18 06:46:53;;;;;;;10.07;4.72;;;5.00;99.90;;;;;;6221229;23;19997;-63
2023/10/18 06:49:19;;;;;;;11.23;5.25;;;5.10;99.90;;;;;;6220982;23;20001;-64
2023/10/18 06:51:49;;;;;;;10.32;4.63;;;5.10;99.90;;;;;;6221037;23;20011;-64
2023/10/18 06:54:23;;;;;;;9.75;4.47;;;5.00;99.90;;;;;;6220971;23;20005;-64
2023/10/18 06:56:53;;;;;;;8.07;4.00;;;5.10;99.90;;;;;;6220678;23;20023;-64
2023/10/18 06:59:25;;;;;;;7.38;4.03;;;5.00;99.90;;;;;;6194234;23;20004;-64
2023/10/18 07:02:00;;;;;;;6.57;4.10;;;4.90;99.90;;;;;;6221046;23;19996;-64
2023/10/18 07:04:34;;;;;;;10.98;4.88;;;4.90;99.90;;;;;;6194951;23;20008;-64
2023/10/18 07:07:13;;;;;;;6.60;4.10;;;4.90;99.90;;;;;;6220590;23;20000;-64
2023/10/18 07:09:42;;;;;;;10.57;5.00;;;4.90;99.90;;;;;;6220911;23;20036;-64
2023/10/18 07:12:11;;;;;;;6.97;4.10;;;5.10;99.90;;;;;;6194831;23;20032;-63
2023/10/18 07:14:37;;;;;;;10.90;4.05;;;5.10;99.90;;;;;;6220563;23;20075;-63
2023/10/18 07:17:04;;;;;;;6.20;4.05;;;5.10;99.90;;;;;;6220617;23;20011;-63
2023/10/18 07:19:48;;;;;;;7.60;4.50;;;5.20;99.90;;;;;;6220546;23;20005;-63
2023/10/18 07:22:21;;;;;;;7.38;4.53;;;5.10;99.90;;;;;;6220403;23;20003;-63
2023/10/18 07:24:53;;;;;;;7.95;4.60;;;5.20;99.90;;;;;;6195246;23;20004;-63
2023/10/18 07:27:24;;;;;;;7.30;4.10;;;5.00;99.90;;;;;;6220503;23;19996;-64
2023/10/18 07:29:50;;;;;;;10.65;4.20;;;5.00;99.90;;;;;;6194254;23;20001;-64
2023/10/18 07:32:20;;;;;;;15.90;4.93;;;5.10;99.90;;;;;;6194529;23;20011;-64
2023/10/18 07:34:48;;;;;;;10.13;4.43;;;5.00;99.90;;;;;;6220671;23;20002;-64
2023/10/18 07:37:17;;;;;;;7.05;3.83;;;5.30;99.90;;;;;;6194432;23;20106;-64
2023/10/18 07:39:45;;;;;;;10.88;5.03;;;5.30;99.90;;;;;;6219914;23;20063;-64
2023/10/18 07:42:11;;;;;;;9.30;5.47;;;5.40;99.90;;;;;;6220551;23;20001;-64
2023/10/18 07:44:41;;;;;;;8.40;3.92;;;5.30;99.90;;;;;;6220151;23;20030;-64
2023/10/18 07:47:09;;;;;;;13.82;5.20;;;5.50;99.90;;;;;;6220241;23;20128;-63
2023/10/18 07:49:34;;;;;;;7.43;4.55;;;5.60;99.90;;;;;;6193627;23;20032;-64
2023/10/18 07:52:00;;;;;;;6.80;4.30;;;5.50;99.90;;;;;;6219939;23;20000;-64
2023/10/18 07:54:26;;;;;;;11.48;4.93;;;5.60;99.90;;;;;;6220104;23;20050;-64
2023/10/18 07:56:54;;;;;;;7.70;4.45;;;5.70;99.90;;;;;;6220435;23;20012;-64
2023/10/18 08:04:42;;;;;;;12.07;4.95;;;5.80;99.90;;;;;;6220039;23;20067;-64
2023/10/18 08:07:10;;;;;;;10.57;4.53;;;5.70;99.90;;;;;;6220031;23;20001;-63
2023/10/18 08:09:39;;;;;;;10.25;5.55;;;5.70;99.90;;;;;;6193867;23;20004;-64
2023/10/18 08:12:06;;;;;;;11.75;4.72;;;5.70;99.90;;;;;;6219967;23;20030;-64
2023/10/18 08:14:32;;;;;;;8.25;4.75;;;6.10;99.90;;;;;;6220093;23;20005;-64
2023/10/18 08:17:08;;;;;;;7.43;4.88;;;6.10;99.90;;;;;;6219877;23;20070;-64
2023/10/18 08:19:43;;;;;;;9.65;4.60;;;6.20;99.90;;;;;;6220204;23;20010;-64
2023/10/18 08:24:49;;;;;;;9.07;4.85;;;6.40;99.90;;;;;;6219812;23;20091;-64
2023/10/18 08:27:15;;;;;;;8.70;5.13;;;6.40;99.90;;;;;;6219711;23;20000;-65
2023/10/18 08:29:41;;;;;;;8.48;4.50;;;6.70;99.90;;;;;;6193869;23;20099;-64
2023/10/18 08:32:16;;;;;;;10.98;4.93;;;6.60;99.90;;;;;;6193291;23;20047;-64
2023/10/18 08:34:43;;;;;;;9.40;4.18;;;6.60;99.90;;;;;;6219498;23;20005;-64
2023/10/18 08:37:15;;;;;;;7.82;5.10;;;6.60;99.90;;;;;;6219558;23;19997;-64
2023/10/18 08:39:41;;;;;;;;;;;6.70;99.90;;;;;;6220940;22;20013;-63
2023/10/18 08:42:10;;;;;;;9.93;5.28;;;6.80;99.90;;;;;;6193833;23;19904;-62
2023/10/18 08:44:38;;;;;;;10.85;5.32;;;6.70;99.90;;;;;;6217569;23;20051;-63
2023/10/18 08:49:44;;;;;;;8.13;4.65;;;7.00;99.90;;;;;;6224995;23;20092;-62
2023/10/18 08:52:11;;;;;;;9.10;5.15;;;7.20;99.90;;;;;;6193232;23;20001;-62
2023/10/18 08:54:39;;;;;;;14.02;5.40;;;7.10;99.90;;;;;;6193895;23;20179;-63
2023/10/18 08:57:11;;;;;;;10.95;5.70;;;7.10;99.90;;;;;;6219800;23;20056;-63
2023/10/18 08:59:43;;;;;;;11.55;5.70;;;7.30;99.90;;;;;;6194192;23;20171;-63
2023/10/18 09:02:21;;;;;;;8.10;4.90;;;7.20;99.90;;;;;;6194808;23;20027;-63
2023/10/18 09:04:54;;;;;;;9.50;5.30;;;7.40;99.90;;;;;;6221779;23;20004;-63
2023/10/18 09:07:42;;;;;;;11.95;5.53;;;7.40;99.90;;;;;;6195648;23;20036;-62
2023/10/18 09:10:33;;;;;;;11.95;5.72;;;7.50;99.90;;;;;;6221960;23;20004;-63
2023/10/18 09:18:20;;;;;;;8.02;5.07;;;7.70;99.90;;;;;;6231802;23;20004;-62
2023/10/18 09:20:47;;;;;;;9.40;5.05;;;7.70;99.90;;;;;;6221722;23;20005;-62
2023/10/18 09:23:20;;;;;;;10.07;5.20;;;7.80;99.90;;;;;;6221034;23;20023;-62
2023/10/18 09:25:49;;;;;;;16.95;5.32;;;7.90;99.90;;;;;;6221665;23;20020;-63
2023/10/18 09:28:20;;;;;;;8.45;5.22;;;8.00;99.90;;;;;;6221702;23;20012;-63
2023/10/18 09:30:46;;;;;;;12.48;5.22;;;8.10;99.90;;;;;;6221589;23;20001;-63
2023/10/18 09:33:15;;;;;;;12.25;5.28;;;8.30;99.90;;;;;;6194949;23;20000;-63
2023/10/18 09:35:47;;;;;;;12.45;5.30;;;8.30;99.90;;;;;;6195306;23;20032;-62
2023/10/18 09:38:13;;;;;;;9.60;5.68;;;8.50;99.90;;;;;;6195538;23;20033;-62
2023/10/18 09:40:40;;;;;;;11.32;6.30;;;8.60;99.90;;;;;;6195851;23;20016;-63
2023/10/18 09:43:06;;;;;;;11.15;5.65;;;8.70;99.90;;;;;;6195625;23;20009;-63
2023/10/18 09:45:33;;;;;;;11.88;5.68;;;9.00;99.90;;;;;;6195466;23;20004;-63
2023/10/18 09:48:00;;;;;;;8.10;4.57;;;9.20;99.90;;;;;;6221469;23;19997;-62
2023/10/18 09:50:28;;;;;;;15.95;5.45;;;9.30;99.90;;;;;;6221427;23;20000;-63
2023/10/18 09:52:59;;;;;;;10.88;5.28;;;9.30;99.90;;;;;;6220857;23;19997;-62
2023/10/18 09:55:28;;;;;;;13.60;5.50;;;9.40;99.90;;;;;;6195234;23;20000;-62
2023/10/18 09:58:04;;;;;;;11.98;5.63;;;9.60;99.90;;;;;;6221345;23;19997;-63
2023/10/18 10:00:42;;;;;;;8.85;4.53;;;9.70;99.90;;;;;;6221192;23;20001;-63
2023/10/18 10:03:12;;;;;;;8.90;5.25;;;9.80;99.90;;;;;;6219045;23;20057;-63
2023/10/18 10:05:41;;;;;;;10.13;6.15;;;9.70;99.90;;;;;;6193939;23;20020;-63
2023/10/18 10:08:07;;;;;;;12.30;6.15;;;9.80;99.90;;;;;;6221110;23;20322;-63
2023/10/18 10:10:46;;;;;;;11.10;5.13;;;9.90;99.90;;;;;;6194839;23;20015;-62
2023/10/18 10:13:18;;;;;;;10.90;5.63;;;10.00;99.90;;;;;;6220910;23;20011;-63
2023/10/18 10:15:45;;;;;;;12.15;5.43;;;10.10;99.90;;;;;;6220762;23;20000;-62
2023/10/18 10:18:13;;;;;;;10.30;5.38;;;10.20;99.90;;;;;;6220798;23;20004;-63
2023/10/18 10:20:41;;;;;;;11.43;5.30;;;10.40;99.90;;;;;;6221051;23;20066;-63
2023/10/18 10:23:14;;;;;;;12.57;5.13;;;10.50;99.90;;;;;;6194999;23;20010;-63
2023/10/18 10:25:48;;;;;;;7.05;4.70;;;10.50;99.90;;;;;;6220981;23;20080;-63
2023/10/18 10:31:54;;;;;;;9.85;5.60;;;10.70;99.90;;;;;;6221558;23;20012;-63
2023/10/18 10:34:26;;;;;;;10.18;5.25;;;10.80;99.90;;;;;;6194626;23;20016;-63
2023/10/18 10:37:18;;;;;;;10.75;5.90;;;10.90;99.90;;;;;;6195258;23;20005;-63
2023/10/18 10:39:45;;;;;;;9.07;5.22;;;10.90;99.90;;;;;;6218366;23;20004;-63
2023/10/18 10:42:19;;;;;;;9.68;5.70;;;10.90;99.90;;;;;;6217933;23;19997;-63
2023/10/18 10:45:06;;;;;;;8.15;5.03;;;10.90;99.90;;;;;;6194775;23;20024;-62
2023/10/18 10:47:33;;;;;;;32.35;9.18;;;10.90;99.90;;;;;;6194879;23;20056;-63
2023/10/18 10:50:00;;;;;;;10.45;5.15;;;11.10;99.90;;;;;;6194712;23;20056;-63
2023/10/18 10:52:31;;;;;;;9.38;5.22;;;11.20;99.90;;;;;;6194804;23;20005;-63
2023/10/18 10:55:27;;;;;;;9.75;5.63;;;11.30;99.90;;;;;;6194763;23;20009;-63
2023/10/18 10:57:55;;;;;;;13.80;5.35;;;11.40;99.90;;;;;;6190800;23;20031;-63
2023/10/18 11:00:49;;;;;;;8.88;5.57;;;11.50;99.90;;;;;;6195200;23;20001;-62
2023/10/18 11:03:28;;;;;;;9.70;4.75;;;11.60;99.90;;;;;;6195619;23;20005;-63
2023/10/18 11:05:54;;;;;;;10.38;5.50;;;11.60;99.90;;;;;;6194521;23;20008;-63
2023/10/18 11:08:20;;;;;;;8.85;4.80;;;11.50;99.90;;;;;;6194424;23;20009;-63
2023/10/18 11:10:46;;;;;;;8.85;4.95;;;11.50;99.90;;;;;;6195067;23;20008;-63
2023/10/18 11:13:14;;;;;;;11.88;5.75;;;11.60;99.90;;;;;;6194814;23;20004;-63
2023/10/18 11:15:42;;;;;;;12.07;4.78;;;11.60;99.90;;;;;;6195515;23;20051;-63
2023/10/18 11:18:20;;;;;;;8.80;5.25;;;11.60;99.90;;;;;;6194511;23;20023;-64
2023/10/18 11:21:18;;;;;;;8.77;5.03;;;11.50;99.90;;;;;;6194399;23;20008;-63
2023/10/18 11:23:46;;;;;;;9.30;5.40;;;11.60;99.90;;;;;;6195589;23;20079;-63
2023/10/18 11:26:19;;;;;;;10.75;5.00;;;11.70;99.90;;;;;;6193738;23;20008;-63
2023/10/18 11:28:48;;;;;;;10.52;5.30;;;11.80;99.90;;;;;;6195248;23;20000;-63
2023/10/18 11:31:14;;;;;;;9.18;5.10;;;11.80;99.90;;;;;;6194261;23;20078;-63
2023/10/18 11:33:55;;;;;;;11.15;5.55;;;11.90;99.90;;;;;;6194440;23;20005;-63
2023/10/18 11:36:21;;;;;;;8.02;4.75;;;12.00;99.90;;;;;;6195314;23;20001;-63
2023/10/18 11:41:53;;;;;;;12.98;5.30;;;12.10;99.90;;;;;;6171521;23;20005;-63
2023/10/18 11:44:32;;;;;;;13.02;5.30;;;12.40;99.90;;;;;;6194872;23;20032;-63
2023/10/18 11:47:12;;;;;;;8.27;4.60;;;12.70;99.90;;;;;;6195284;23;20000;-63
2023/10/18 11:49:42;;;;;;;7.53;4.85;;;13.00;99.90;;;;;;6194774;23;20008;-63
2023/10/18 11:52:22;;;;;;;10.35;5.20;;;13.10;99.90;;;;;;6194685;23;20009;-63
2023/10/18 11:54:51;;;;;;;8.48;4.70;;;13.40;99.90;;;;;;6194248;23;20013;-63
2023/10/18 11:57:35;;;;;;;7.60;4.60;;;13.40;99.90;;;;;;6195154;23;20005;-63
2023/10/18 12:02:45;;;;;;;8.73;5.32;;;13.70;99.90;;;;;;6220460;23;20015;-63
2023/10/18 12:05:14;;;;;;;14.40;7.53;;;13.80;99.90;;;;;;6194170;23;20007;-63
2023/10/18 12:07:44;;;;;;;6.40;4.32;;;13.90;99.90;;;;;;6195063;23;20001;-63
2023/10/18 12:10:17;;;;;;;8.25;4.63;;;14.10;99.90;;;;;;6193946;23;20005;-63
2023/10/18 12:12:42;;;;;;;13.93;5.22;;;14.20;99.90;;;;;;6194289;23;20000;-62
2023/10/18 12:15:08;;;;;;;12.95;4.72;;;14.30;99.90;;;;;;6194345;23;20012;-62
2023/10/18 12:17:34;;;;;;;10.55;5.07;;;14.40;99.90;;;;;;6194448;23;19997;-63
2023/10/18 12:20:00;;;;;;;8.82;4.22;;;14.60;99.90;;;;;;6194302;23;20007;-63
2023/10/18 12:22:25;;;;;;;8.40;4.50;;;14.50;99.90;;;;;;6195532;23;20005;-63
2023/10/18 12:24:51;;;;;;;11.80;4.85;;;14.70;99.90;;;;;;6194498;23;20036;-63
2023/10/18 12:27:35;;;;;;;8.80;4.10;;;14.60;99.90;;;;;;6194691;23;20008;-63
2023/10/18 12:30:09;;;;;;;10.05;5.15;;;15.00;99.90;;;;;;6194835;23;20005;-63
2023/10/18 12:32:50;;;;;;;11.13;5.68;;;15.30;99.90;;;;;;6195207;23;20008;-63
2023/10/18 12:35:19;;;;;;;4.18;2.60;;;15.50;99.90;;;;;;6195220;23;20008;-63
2023/10/18 12:37:45;;;;;;;5.43;1.83;;;15.50;99.90;;;;;;6196150;23;20001;-63
2023/10/18 12:43:04;;;;;;;3.45;1.77;;;15.50;99.90;;;;;;6180566;23;20004;-63
2023/10/18 12:45:41;;;;;;;2.33;1.45;;;15.40;99.90;;;;;;6197021;23;20051;-62
2023/10/18 12:48:09;;;;;;;2.53;1.30;;;15.40;99.90;;;;;;6195900;23;20030;-63
2023/10/18 12:50:35;;;;;;;5.13;1.83;;;15.50;99.90;;;;;;6196393;23;20005;-63
2023/10/18 12:55:45;;;;;;;2.72;1.63;;;15.50;99.90;;;;;;6222090;23;20016;-63
2023/10/18 12:58:18;;;;;;;4.25;1.38;;;15.40;99.90;;;;;;6196932;23;20012;-63
2023/10/18 13:00:46;;;;;;;3.92;1.88;;;15.50;99.90;;;;;;6195875;23;20032;-63
2023/10/18 13:05:40;;;;;;;3.08;1.88;;;15.30;99.90;;;;;;6222177;23;20084;-63
2023/10/18 13:08:55;;;;;;;3.97;1.17;;;15.30;99.90;;;;;;6197123;23;20016;-62
2023/10/18 13:13:30;;;;;;;3.65;1.88;;;15.50;99.90;;;;;;6222372;23;20005;-63
2023/10/18 13:15:57;;;;;;;1.98;1.50;;;15.60;99.90;;;;;;6196574;23;20005;-62
2023/10/18 13:18:27;;;;;;;5.07;1.85;;;15.70;99.90;;;;;;6196234;23;20005;-63
2023/10/18 13:20:54;;;;;;;4.13;1.33;;;15.70;99.90;;;;;;6195549;23;20000;-63
2023/10/18 13:23:27;;;;;;;5.50;1.30;;;15.60;99.90;;;;;;6195979;23;20001;-63
2023/10/18 13:25:53;;;;;;;3.10;1.55;;;15.50;99.90;;;;;;6195649;23;20051;-63
2023/10/18 13:28:24;;;;;;;3.50;1.65;;;15.40;99.90;;;;;;6195612;23;20024;-62
2023/10/18 13:30:51;;;;;;;6.35;1.83;;;15.30;99.90;;;;;;6196804;23;20058;-63
2023/10/18 13:33:18;;;;;;;3.25;1.40;;;15.30;99.90;;;;;;6195845;23;20239;-63
2023/10/18 13:35:49;;;;;;;1.55;1.20;;;15.40;99.90;;;;;;6195455;23;20004;-63
2023/10/18 13:38:15;;;;;;;5.00;1.80;;;15.40;99.90;;;;;;6195757;23;20004;-63
2023/10/18 13:40:43;;;;;;;3.30;2.08;;;15.50;99.90;;;;;;6195763;23;20044;-62
2023/10/18 13:43:09;;;;;;;3.67;1.67;;;15.60;99.90;;;;;;6195320;23;20005;-63
2023/10/18 13:45:37;;;;;;;3.33;1.30;;;15.80;99.90;;;;;;6195831;23;20012;-63
2023/10/18 13:48:02;;;;;;;2.42;1.77;;;15.80;99.90;;;;;;6195314;23;20008;-62
2023/10/18 13:50:34;;;;;;;5.00;1.95;;;15.80;99.90;;;;;;6195587;23;20034;-63
2023/10/18 13:53:00;;;;;;;1.63;1.10;;;15.80;99.90;;;;;;6195320;23;20059;-63
2023/10/18 13:55:26;;;;;;;5.53;1.83;;;15.70;99.90;;;;;;6196075;23;20009;-62
2023/10/18 13:57:51;;;;;;;7.00;1.90;;;15.60;99.90;;;;;;6196042;23;20028;-63
2023/10/18 14:00:21;;;;;;;4.40;1.70;;;15.50;99.90;;;;;;6195623;23;20116;-63
2023/10/18 14:02:47;;;;;;;3.17;1.60;;;15.50;99.90;;;;;;6195160;23;19996;-63
2023/10/18 14:05:13;;;;;;;3.58;2.15;;;15.50;99.90;;;;;;6195262;23;20082;-63
2023/10/18 14:07:38;;;;;;;5.00;2.00;;;15.60;99.90;;;;;;6196240;23;20008;-63
2023/10/18 14:10:19;;;;;;;2.50;1.70;;;15.60;99.90;;;;;;6195055;23;20058;-63
2023/10/18 14:12:46;;;;;;;2.95;1.65;;;15.60;99.90;;;;;;6196383;23;20011;-63
2023/10/18 14:15:16;;;;;;;1.85;1.30;;;15.60;99.90;;;;;;6196085;23;20059;-63